Time;durP1;ratioP1;P1;durP2;ratioP2;P2;SDS_P1;SDS_P2;PMS_P1;PMS_P2;Temp;Humidity;BMP_temperature;BMP_pressure;BME280_temperature;BME280_humidity;BME280_pressure;Samples;Min_cycle;Max_cycle;Signal;HPM_P1;HPM_P2
2022/05/21 00:04:52;;;;;;;3;8.3;;;;;;;-133;62.6;65250;;;;
2022/05/21 00:14:53;;;;;;;3;8.3;;;;;;;-133;64.9;65250;;;;
2022/05/21 00:25:52;;;;;;;3.4;12;;;;;;;-133;68.7;65250;;;;
2022/05/21 00:35:52;;;;;;;3.4;12;;;;;;;-133;71.3;65250;;;;
2022/05/21 00:46:52;;;;;;;3.4;12;;;;;;;-133;73.6;65250;;;;
2022/05/21 00:59:47;;;;;;;1.3;3.6;;;;;;;-133;74.5;65250;;;;
2022/05/21 01:07:52;;;;;;;1.3;3.6;;;;;;;-133;74.5;65250;;;;
2022/05/21 01:17:52;;;;;;;1.3;3.6;;;;;;;-133;74.5;65250;;;;
2022/05/21 01:27:53;;;;;;;1.5;5.6;;;;;;;-133;73.8;65250;;;;
2022/05/21 01:38:52;;;;;;;1.5;5.6;;;;;;;-133;72.1;65250;;;;
2022/05/21 01:49:52;;;;;;;1.1;3.4;;;;;;;-133;69.5;65250;;;;
2022/05/21 01:59:52;;;;;;;1.1;3.4;;;;;;;-133;69.2;65250;;;;
2022/05/21 02:10:52;;;;;;;1.1;3.4;;;;;;;-133;70.3;65250;;;;
2022/05/21 02:21:52;;;;;;;1;2.6;;;;;;;-133;70.7;65250;;;;
2022/05/21 02:32:52;;;;;;;1;2.6;;;;;;;-133;72.5;65250;;;;
2022/05/21 02:42:54;;;;;;;1;2.6;;;;;;;-133;72.9;65250;;;;
2022/05/21 02:53:52;;;;;;;1.3;3.9;;;;;;;-133;74.3;65250;;;;
2022/05/21 03:04:52;;;;;;;1.3;3.9;;;;;;;-133;74.4;65250;;;;
2022/05/21 03:14:52;;;;;;;1.3;3.9;;;;;;;-133;74.8;65250;;;;
2022/05/21 03:25:52;;;;;;;2.1;3.6;;;;;;;-133;75.2;65250;;;;
2022/05/21 03:35:52;;;;;;;2.1;3.6;;;;;;;-133;75.1;65250;;;;
2022/05/21 03:46:52;;;;;;;2.1;3.6;;;;;;;-133;74.6;65250;;;;
2022/05/21 03:57:52;;;;;;;2.1;4.9;;;;;;;-133;74.1;65240;;;;
2022/05/21 04:08:52;;;;;;;2.1;4.9;;;;;;;-133;73.5;65250;;;;
2022/05/21 04:18:53;;;;;;;2.1;4.9;;;;;;;-133;73.7;65250;;;;
2022/05/21 04:28:52;;;;;;;2.7;6.4;;;;;;;-133;74.5;65250;;;;
2022/05/21 04:39:52;;;;;;;2.7;6.4;;;;;;;-133;75.4;65240;;;;
2022/05/21 04:49:52;;;;;;;2.4;7.6;;;;;;;-133;75;65250;;;;
2022/05/21 05:00:52;;;;;;;2.4;7.6;;;;;;;-133;75.8;65240;;;;
2022/05/21 05:10:52;;;;;;;2.4;7.6;;;;;;;-133;75.9;65250;;;;
2022/05/21 05:20:52;;;;;;;3.6;6.6;;;;;;;-133;75.7;65240;;;;
2022/05/21 05:31:52;;;;;;;3.6;6.6;;;;;;;-133;77.3;65250;;;;
2022/05/21 05:41:53;;;;;;;3.6;6.6;;;;;;;-133;81.2;65240;;;;
2022/05/21 05:51:52;;;;;;;3.5;7.9;;;;;;;-133;92.3;65240;;;;
2022/05/21 06:02:59;;;;;;;3.5;7.9;;;;;;;-133;95.4;65250;;;;
2022/05/21 06:12:52;;;;;;;3.5;7.9;;;;;;;-133;95.3;65240;;;;
2022/05/21 06:22:52;;;;;;;6.2;10.5;;;;;;;-133;95.1;65250;;;;
2022/05/21 06:32:52;;;;;;;6.2;10.5;;;;;;;-133;94.7;65250;;;;
2022/05/21 06:42:52;;;;;;;6.2;10.5;;;;;;;-133;92.6;65250;;;;
2022/05/21 06:53:52;;;;;;;5.2;11;;;;;;;-133;90.9;65240;;;;
2022/05/21 07:15:54;;;;;;;5.2;11;;;;;;;-133;84.3;65240;;;;
2022/05/21 07:25:52;;;;;;;5.5;9.8;;;;;;;-133;81.2;65240;;;;
2022/05/21 07:35:52;;;;;;;5.5;9.8;;;;;;;-133;76.2;65240;;;;
2022/05/21 07:46:52;;;;;;;5.5;9.8;;;;;;;-133;77.1;65240;;;;
2022/05/21 07:57:52;;;;;;;3.5;6.9;;;;;;;-133;69.9;65240;;;;
2022/05/21 08:07:52;;;;;;;3.5;6.9;;;;;;;-133;66.8;65250;;;;
2022/05/21 08:17:53;;;;;;;3.5;6.9;;;;;;;-133;65.1;65240;;;;
2022/05/21 08:28:52;;;;;;;2.9;8.1;;;;;;;-133;63.7;65240;;;;
2022/05/21 08:38:52;;;;;;;2.9;8.1;;;;;;;-133;58.2;65240;;;;
2022/05/21 08:48:52;;;;;;;2.9;8.1;;;;;;;-133;56;65240;;;;
2022/05/21 08:59:52;;;;;;;1.2;5.8;;;;;;;-133;54.4;65240;;;;
2022/05/21 09:10:52;;;;;;;1.2;5.8;;;;;;;-133;52.7;65230;;;;
2022/05/21 09:20:52;;;;;;;1.6;8.5;;;;;;;-133;51.7;65230;;;;
2022/05/21 09:31:53;;;;;;;1.6;8.5;;;;;;;-133;52;65230;;;;
2022/05/21 09:41:52;;;;;;;1.6;8.5;;;;;;;-133;51.4;65230;;;;
2022/05/21 09:52:52;;;;;;;1.5;7;;;;;;;-133;52.6;65230;;;;
2022/05/21 10:03:52;;;;;;;1.5;7;;;;;;;-133;49.2;65230;;;;
2022/05/21 10:14:52;;;;;;;1.5;7;;;;;;;-133;49.7;65230;;;;
2022/05/21 10:25:52;;;;;;;1.1;3.6;;;;;;;-133;48.7;65230;;;;
2022/05/21 10:35:53;;;;;;;1.1;3.6;;;;;;;-133;46.3;65230;;;;
2022/05/21 10:46:52;;;;;;;1.1;3.6;;;;;;;-133;46.6;65230;;;;
2022/05/21 10:56:52;;;;;;;0.8;3.1;;;;;;;-133;45.3;65230;;;;
2022/05/21 11:06:52;;;;;;;0.8;3.1;;;;;;;-133;45.6;65230;;;;
2022/05/21 11:16:52;;;;;;;0.8;3.1;;;;;;;-133;44.7;65230;;;;
2022/05/21 11:26:52;;;;;;;0.9;5.2;;;;;;;-133;44.7;65230;;;;
2022/05/21 11:37:52;;;;;;;0.9;5.2;;;;;;;-133;44.2;65230;;;;
2022/05/21 11:48:54;;;;;;;0.9;5.2;;;;;;;-133;44.8;65230;;;;
2022/05/21 11:59:52;;;;;;;1;3.7;;;;;;;-133;44;65230;;;;
2022/05/21 12:09:52;;;;;;;1;3.7;;;;;;;-133;43.4;65230;;;;
2022/05/21 12:20:52;;;;;;;1;4;;;;;;;-133;42.2;65230;;;;
2022/05/21 12:31:53;;;;;;;1;4;;;;;;;-133;42.9;65230;;;;
2022/05/21 12:41:53;;;;;;;1;4;;;;;;;-133;42.1;65230;;;;
2022/05/21 12:52:52;;;;;;;1.2;6.2;;;;;;;-133;42.9;65230;;;;
2022/05/21 13:03:52;;;;;;;1.2;6.2;;;;;;;-133;44.7;65230;;;;
2022/05/21 13:13:53;;;;;;;1.2;6.2;;;;;;;-133;44.1;65230;;;;
2022/05/21 13:24:53;;;;;;;1.1;2.6;;;;;;;-133;43.9;65230;;;;
2022/05/21 13:34:52;;;;;;;1.1;2.6;;;;;;;-133;42.9;65230;;;;
2022/05/21 13:44:53;;;;;;;1.1;2.6;;;;;;;-133;43.3;65230;;;;
2022/05/21 13:55:52;;;;;;;1.2;3.6;;;;;;;-133;43.3;65230;;;;
2022/05/21 14:05:53;;;;;;;1.2;3.6;;;;;;;-133;43.2;65230;;;;
2022/05/21 14:15:52;;;;;;;1.2;3.6;;;;;;;-133;42;65230;;;;
2022/05/21 14:26:53;;;;;;;1.5;4.2;;;;;;;-133;42.9;65230;;;;
2022/05/21 14:36:53;;;;;;;1.5;4.2;;;;;;;-133;42.6;65230;;;;
2022/05/21 14:47:52;;;;;;;1.5;4.2;;;;;;;-133;41.8;65230;;;;
2022/05/21 14:57:53;;;;;;;0.9;2.9;;;;;;;-133;42.8;65230;;;;
2022/05/21 15:08:55;;;;;;;0.9;2.9;;;;;;;-133;44.8;65230;;;;
2022/05/21 15:18:53;;;;;;;0.9;2.9;;;;;;;-133;45;65240;;;;
2022/05/21 15:28:52;;;;;;;1.2;4.9;;;;;;;-133;45.4;65240;;;;
2022/05/21 15:38:52;;;;;;;1.2;4.9;;;;;;;-133;45.6;65230;;;;
2022/05/21 15:49:52;;;;;;;1.3;4;;;;;;;-133;43.4;65230;;;;
2022/05/21 16:00:52;;;;;;;1.3;4;;;;;;;-133;46.1;65240;;;;
2022/05/21 16:10:52;;;;;;;1.3;4;;;;;;;-133;46.3;65240;;;;
2022/05/21 16:21:53;;;;;;;1.4;5.2;;;;;;;-133;47;65240;;;;
2022/05/21 16:32:53;;;;;;;1.4;5.2;;;;;;;-133;44.8;65230;;;;
2022/05/21 16:43:53;;;;;;;1.4;5.2;;;;;;;-133;44.1;65240;;;;
2022/05/21 16:53:54;;;;;;;1.3;4.6;;;;;;;-133;38.6;65230;;;;
2022/05/21 17:03:52;;;;;;;1.3;4.6;;;;;;;-133;42.4;65240;;;;
2022/05/21 17:13:54;;;;;;;1.3;4.6;;;;;;;-133;43.8;65240;;;;
2022/05/21 17:24:53;;;;;;;1.4;3.9;;;;;;;-133;43.5;65240;;;;
2022/05/21 17:35:54;;;;;;;1.4;3.9;;;;;;;-133;43.7;65240;;;;
2022/05/21 17:45:52;;;;;;;1.4;3.9;;;;;;;-133;44.6;65240;;;;
2022/05/21 17:55:53;;;;;;;1.5;6;;;;;;;-133;46.5;65240;;;;
2022/05/21 18:05:52;;;;;;;1.5;6;;;;;;;-133;47.4;65240;;;;
2022/05/21 18:26:53;;;;;;;1.6;3.9;;;;;;;-133;51.8;65240;;;;
2022/05/21 18:36:53;;;;;;;1.6;3.9;;;;;;;-133;52.5;65240;;;;
2022/05/21 18:46:53;;;;;;;1.6;3.9;;;;;;;-133;53.4;65240;;;;
2022/05/21 18:57:56;;;;;;;2.7;8.4;;;;;;;-133;56;65240;;;;
2022/05/21 19:07:53;;;;;;;2.7;8.4;;;;;;;-133;56.6;65240;;;;
2022/05/21 19:17:53;;;;;;;2.7;8.4;;;;;;;-133;57.6;65240;;;;
2022/05/21 19:28:53;;;;;;;3.1;6.7;;;;;;;-133;57.9;65240;;;;
2022/05/21 19:49:53;;;;;;;5.4;9.9;;;;;;;-133;60.4;65240;;;;
2022/05/21 20:00:53;;;;;;;5.4;9.9;;;;;;;-133;60.4;65250;;;;
2022/05/21 20:10:53;;;;;;;5.4;9.9;;;;;;;-133;58.9;65250;;;;
2022/05/21 20:20:53;;;;;;;3.6;7.6;;;;;;;-133;60.3;65250;;;;
2022/05/21 20:31:53;;;;;;;3.6;7.6;;;;;;;-133;62.1;65250;;;;
2022/05/21 20:41:53;;;;;;;3.6;7.6;;;;;;;-133;63;65250;;;;
2022/05/21 20:51:53;;;;;;;3;6.1;;;;;;;-133;63.4;65250;;;;
2022/05/21 21:02:53;;;;;;;3;6.1;;;;;;;-133;63.8;65250;;;;
2022/05/21 21:12:54;;;;;;;3;6.1;;;;;;;-133;65.5;65250;;;;
2022/05/21 21:23:53;;;;;;;3.3;7.1;;;;;;;-133;66.8;65250;;;;
2022/05/21 21:33:53;;;;;;;3.3;7.1;;;;;;;-133;68;65250;;;;
2022/05/21 21:44:53;;;;;;;3.3;7.1;;;;;;;-133;69.1;65250;;;;
2022/05/21 21:54:53;;;;;;;3.1;10.1;;;;;;;-133;70.5;65250;;;;
2022/05/21 22:05:53;;;;;;;3.1;10.1;;;;;;;-133;71.1;65250;;;;
2022/05/21 22:16:53;;;;;;;3.1;10.1;;;;;;;-133;69.9;65250;;;;
2022/05/21 22:26:53;;;;;;;3;10;;;;;;;-133;68.7;65250;;;;
2022/05/21 22:37:56;;;;;;;3;10;;;;;;;-133;66.2;65250;;;;
2022/05/21 22:47:53;;;;;;;3;10;;;;;;;-133;66.3;65260;;;;
2022/05/21 22:57:53;;;;;;;2.3;4.9;;;;;;;-133;66.2;65250;;;;
2022/05/21 23:07:53;;;;;;;2.3;4.9;;;;;;;-133;66.2;65250;;;;
2022/05/21 23:18:53;;;;;;;1.9;4.5;;;;;;;-133;66.9;65250;;;;
2022/05/21 23:29:53;;;;;;;1.9;4.5;;;;;;;-133;67.2;65250;;;;
2022/05/21 23:39:53;;;;;;;1.9;4.5;;;;;;;-133;68.6;65250;;;;
2022/05/21 23:49:53;;;;;;;1.8;3.8;;;;;;;-133;68.9;65240;;;;
